FW2617 Weather Reports


Display with metric or nautical units.
time (UTC)temp
F
wind
direction
speed
MPH
gust
MPH
rain 1hr
in
rain 24hr
in
rain mn
in
humidity
%
barometer
mb
20190320025003 58 161 1.0 2.0 0.00 0.00 0.00 52 1021.0
20190320024502 58 161 1.0 2.0 0.00 0.00 0.00 51 1021.0
20190320023003 59 160 1.0 4.0 0.00 0.00 0.00 50 1020.9
20190320022502 59 162 1.0 5.0 0.00 0.00 0.00 49 1020.8
20190320022002 59 162 1.0 5.0 0.00 0.00 0.00 49 1020.8
20190320021002 60 159 2.0 7.0 0.00 0.00 0.00 48 1020.7
20190320020502 60 159 2.0 6.0 0.00 0.00 0.00 47 1020.7
20190320015003 60 158 2.0 6.0 0.00 0.00 0.00 46 1020.5
20190320014002 61 155 2.0 7.0 0.00 0.00 0.00 45 1020.4
20190320013502 61 156 3.0 7.0 0.00 0.00 0.00 44 1020.4
20190320013002 61 161 3.0 7.0 0.00 0.00 0.00 44 1020.3
20190320012502 61 161 3.0 8.0 0.00 0.00 0.00 44 1020.3
20190320011502 62 163 3.0 7.0 0.00 0.00 0.00 44 1020.3
20190320010503 62 165 2.0 7.0 0.00 0.00 0.00 44 1020.1
20190320010003 63 162 3.0 7.0 0.00 0.00 0.00 43 1020.0
20190320005002 64 168 4.0 11.0 0.00 0.00 0.00 42 1020.0
20190320004503 64 169 4.0 11.0 0.00 0.00 0.00 42 1020.0
20190320004002 64 168 4.0 9.0 0.00 0.00 0.00 41 1020.1
20190320003502 64 169 5.0 11.0 0.00 0.00 0.00 40 1020.1
20190320002502 65 173 5.0 10.0 0.00 0.00 0.00 40 1020.1
20190320002003 65 173 4.0 10.0 0.00 0.00 0.00 40 1020.1
20190320001502 66 168 4.0 11.0 0.00 0.00 0.00 40 1020.0
20190320000502 66 170 5.0 12.0 0.00 0.00 0.00 40 1020.0
20190320000003 66 168 5.0 12.0 0.00 0.00 0.00 39 1019.9
20190319235502 66 167 6.0 15.0 0.00 0.00 0.00 39 1019.9
20190319235003 67 166 6.0 15.0 0.00 0.00 0.00 38 1019.9
20190319234503 67 165 5.0 11.0 0.00 0.00 0.00 38 1019.9
20190319234002 67 168 6.0 14.0 0.00 0.00 0.00 39 1019.9
20190319233502 67 163 6.0 14.0 0.00 0.00 0.00 38 1019.9
20190319233003 67 160 7.0 15.0 0.00 0.00 0.00 38 1019.9
20190319232502 67 164 9.0 17.0 0.00 0.00 0.00 38 1019.9
20190319232002 68 167 9.0 17.0 0.00 0.00 0.00 37 1019.9
20190319231003 68 159 9.0 17.0 0.00 0.00 0.00 37 1019.8
20190319230002 68 165 6.0 15.0 0.00 0.00 0.00 37 1019.8
20190319225502 68 163 7.0 14.0 0.00 0.00 0.00 36 1019.9
20190319225002 68 161 9.0 17.0 0.00 0.00 0.00 37 1019.9
20190319224503 69 162 9.0 17.0 0.00 0.00 0.00 35 1020.0
20190319224003 69 161 9.0 17.0 0.00 0.00 0.00 34 1019.9
20190319223502 69 165 10.0 17.0 0.00 0.00 0.00 34 1019.8
20190319223002 69 171 9.0 17.0 0.00 0.00 0.00 34 1019.8
20190319222003 70 162 9.0 18.0 0.00 0.00 0.00 34 1019.9
20190319221002 70 159 9.0 16.0 0.00 0.00 0.00 33 1020.1
20190319215002 71 157 7.0 15.0 0.00 0.00 0.00 35 1020.2
20190319214502 71 154 7.0 15.0 0.00 0.00 0.00 35 1020.3
20190319213502 71 163 6.0 13.0 0.00 0.00 0.00 35 1020.4
20190319213003 71 147 7.0 13.0 0.00 0.00 0.00 36 1020.5
20190319212502 71 147 8.0 15.0 0.00 0.00 0.00 36 1020.6
20190319211502 70 155 8.0 15.0 0.00 0.00 0.00 36 1020.7
20190319211002 69 154 8.0 16.0 0.00 0.00 0.00 38 1020.8
20190319210003 69 147 5.0 11.0 0.00 0.00 0.00 39 1020.8
20190319204502 68 158 6.0 15.0 0.00 0.00 0.00 38 1020.8
20190319203502 68 157 8.0 15.0 0.00 0.00 0.00 36 1021.0
20190319202503 69 163 7.0 15.0 0.00 0.00 0.00 35 1021.1
20190319202002 69 161 9.0 19.0 0.00 0.00 0.00 35 1021.3
20190319201502 70 154 10.0 19.0 0.00 0.00 0.00 34 1021.4
20190319200002 71 157 9.0 17.0 0.00 0.00 0.00 34 1021.5
20190319195002 70 141 8.0 15.0 0.00 0.00 0.00 33 1021.5
20190319194503 70 145 7.0 15.0 0.00 0.00 0.00 35 1021.6
20190319193503 69 147 8.0 18.0 0.00 0.00 0.00 34 1021.7
20190319192503 70 155 10.0 22.0 0.00 0.00 0.00 35 1022.0
20190319191502 71 139 10.0 18.0 0.00 0.00 0.00 34 1022.2
20190319191002 71 142 8.0 18.0 0.00 0.00 0.00 34 1022.3
20190319190002 70 147 8.0 21.0 0.00 0.00 0.00 35 1022.5
20190319185003 70 158 10.0 20.0 0.00 0.00 0.00 35 1022.7
20190319184003 69 151 8.0 19.0 0.00 0.00 0.00 37 1022.8
20190319182502 71 155 8.0 18.0 0.00 0.00 0.00 36 1022.9
20190319181503 71 166 9.0 20.0 0.00 0.00 0.00 36 1023.3
20190319181004 70 158 8.0 18.0 0.00 0.00 0.00 36 1023.3
20190319175003 68 157 8.0 17.0 0.00 0.00 0.00 38 1023.7
20190319173502 69 170 8.0 16.0 0.00 0.00 0.00 36 1023.8
20190319173003 70 162 9.0 17.0 0.00 0.00 0.00 36 1023.9
20190319171503 69 175 7.0 16.0 0.00 0.00 0.00 36 1023.9
20190319171002 69 170 8.0 17.0 0.00 0.00 0.00 36 1024.0
20190319170003 68 185 6.0 16.0 0.00 0.00 0.00 37 1023.9
20190319165503 68 187 5.0 16.0 0.00 0.00 0.00 38 1023.9
20190319165002 68 183 5.0 15.0 0.00 0.00 0.00 37 1024.0
20190319164003 68 187 5.0 10.0 0.00 0.00 0.00 39 1024.0
20190319163002 66 208 5.0 11.0 0.00 0.00 0.00 41 1024.1
20190319162002 66 208 4.0 11.0 0.00 0.00 0.00 41 1024.1
20190319161002 65 203 4.0 11.0 0.00 0.00 0.00 40 1024.0
20190319153002 64 188 5.0 11.0 0.00 0.00 0.00 43 1023.9
20190319152502 63 181 6.0 12.0 0.00 0.00 0.00 43 1023.8
20190319152002 63 196 5.0 12.0 0.00 0.00 0.00 44 1023.9
20190319151503 62 204 5.0 11.0 0.00 0.00 0.00 45 1023.7
20190319150503 62 185 5.0 11.0 0.00 0.00 0.00 44 1023.8
20190319145502 61 204 4.0 11.0 0.00 0.00 0.00 45 1023.7
20190319143003 57 209 3.0 9.0 0.00 0.00 0.00 52 1023.6
20190319142502 56 211 3.0 8.0 0.00 0.00 0.00 54 1023.6
20190319142003 56 223 3.0 8.0 0.00 0.00 0.00 57 1023.6
20190319141503 55 226 2.0 7.0 0.00 0.00 0.00 60 1023.5
20190319141003 54 219 1.0 4.0 0.00 0.00 0.00 62 1023.5
20190319135503 52 221 1.0 3.0 0.00 0.00 0.00 65 1023.4
20190319134503 52 227 1.0 4.0 0.00 0.00 0.00 67 1023.3
20190319133503 51 222 1.0 4.0 0.00 0.00 0.00 68 1023.2
20190319132503 50 215 1.0 3.0 0.00 0.00 0.00 69 1023.2
20190319132004 49 212 0.0 3.0 0.00 0.00 0.00 69 1023.2
20190319131003 49 205 0.0 1.0 0.00 0.00 0.00 70 1023.2
20190319130503 49 0 0.0 0.0 0.00 0.00 0.00 70 1023.2
20190319130003 49 0 0.0 0.0 0.00 0.00 0.00 70 1023.2
20190319125003 49 0 0.0 0.0 0.00 0.00 0.00 70 1023.1
20190319124503 49 0 0.0 0.0 0.00 0.00 0.00 70 1023.1
20190319123503 50 0 0.0 1.0 0.00 0.00 0.00 70 1023.0
20190319123002 50 205 0.0 1.0 0.00 0.00 0.00 70 1023.0
20190319122502 50 205 0.0 1.0 0.00 0.00 0.00 70 1023.0
20190319122002 50 205 0.0 1.0 0.00 0.00 0.00 70 1023.0
20190319121503 50 205 0.0 1.0 0.00 0.00 0.00 70 1023.0
20190319120003 49 205 0.0 2.0 0.00 0.00 0.00 70 1022.8
20190319115502 49 205 0.0 2.0 0.00 0.00 0.00 70 1022.8
20190319114502 49 198 0.0 2.0 0.00 0.00 0.00 72 1022.8
20190319112503 48 100 0.0 1.0 0.00 0.00 0.00 77 1022.5
20190319111503 48 100 0.0 1.0 0.00 0.00 0.00 78 1022.5
20190319111003 47 100 0.0 1.0 0.00 0.00 0.00 78 1022.5
20190319110503 47 100 0.0 1.0 0.00 0.00 0.00 78 1022.5
20190319105503 47 100 0.0 1.0 0.00 0.00 0.00 78 1022.4
20190319105003 47 0 0.0 0.0 0.00 0.00 0.00 78 1022.4
20190319104002 47 0 0.0 0.0 0.00 0.00 0.00 78 1022.4
20190319103003 47 0 0.0 0.0 0.00 0.00 0.00 77 1022.3
20190319102002 46 0 0.0 0.0 0.00 0.00 0.00 77 1022.2
20190319100502 46 100 0.0 1.0 0.00 0.00 0.00 79 1022.2
20190319100003 46 100 0.0 1.0 0.00 0.00 0.00 79 1022.2
20190319095003 46 0 0.0 0.0 0.00 0.00 0.00 80 1022.1
20190319094502 46 0 0.0 0.0 0.00 0.00 0.00 82 1022.1
20190319094003 46 0 0.0 0.0 0.00 0.00 0.00 82 1022.0
20190319093503 45 0 0.0 0.0 0.00 0.00 0.00 82 1022.1
20190319092503 45 100 0.0 1.0 0.00 0.00 0.00 83 1022.1
20190319092003 45 100 0.0 1.0 0.00 0.00 0.00 83 1022.1
20190319091503 45 0 0.0 0.0 0.00 0.00 0.00 83 1022.1
20190319090002 45 0 0.0 0.0 0.00 0.00 0.00 82 1022.2
20190319085503 45 0 0.0 0.0 0.00 0.00 0.00 82 1022.2
20190319085003 45 0 0.0 0.0 0.00 0.00 0.00 81 1022.2
20190319084503 45 0 0.0 0.0 0.00 0.00 0.00 81 1022.3
20190319083503 45 0 0.0 0.0 0.00 0.00 0.00 80 1022.5
20190319083004 45 0 0.0 0.0 0.00 0.00 0.00 78 1022.4
20190319082503 45 0 0.0 0.0 0.00 0.00 0.00 76 1022.5
20190319081503 45 0 0.0 0.0 0.00 0.00 0.00 75 1022.5
20190319080003 46 0 0.0 0.0 0.00 0.00 0.00 73 1022.5
20190319075003 46 0 0.0 0.0 0.00 0.00 0.00 73 1022.6
20190319074503 46 0 0.0 0.0 0.00 0.00 0.00 74 1022.6
20190319074002 46 0 0.0 0.0 0.00 0.00 0.00 74 1022.7
20190319073503 46 0 0.0 0.0 0.00 0.00 0.00 73 1022.7
20190319073002 46 0 0.0 0.0 0.00 0.00 0.00 73 1022.7
20190319071003 47 0 0.0 0.0 0.00 0.00 0.00 72 1022.7
20190319070503 47 0 0.0 0.0 0.00 0.00 0.00 71 1022.7
20190319065002 47 0 0.0 0.0 0.00 0.00 0.00 69 1022.7
20190319062504 48 0 0.0 0.0 0.00 0.00 0.00 68 1022.8
20190319062003 48 0 0.0 0.0 0.00 0.00 0.00 68 1022.8
20190319060503 48 0 0.0 0.0 0.00 0.00 0.00 68 1022.8
20190319053503 48 0 0.0 0.0 0.00 0.00 0.00 67 1023.0
20190319051003 49 0 0.0 0.0 0.00 0.00 0.00 64 1022.9
20190319050004 50 0 0.0 0.0 0.00 0.00 0.00 64 1023.0
20190319044503 50 0 0.0 0.0 0.00 0.00 0.00 63 1023.0
20190319042503 51 0 0.0 0.0 0.00 0.00 0.00 61 1023.0
20190319042003 51 0 0.0 0.0 0.00 0.00 0.00 60 1023.1
20190319041503 51 0 0.0 0.0 0.00 0.00 0.00 60 1023.1
20190319041003 52 0 0.0 0.0 0.00 0.00 0.00 59 1023.0
20190319040503 52 0 0.0 0.0 0.00 0.00 0.00 58 1023.0
20190319040003 52 0 0.0 0.0 0.00 0.00 0.00 58 1023.0
20190319035503 52 0 0.0 0.0 0.00 0.00 0.00 57 1023.1
20190319034503 53 0 0.0 0.0 0.00 0.00 0.00 57 1023.0
20190319033503 54 0 0.0 0.0 0.00 0.00 0.00 55 1023.0
20190319033003 54 0 0.0 0.0 0.00 0.00 0.00 55 1023.0
20190319032502 54 0 0.0 0.0 0.00 0.00 0.00 55 1023.0
20190319032004 54 0 0.0 0.0 0.00 0.00 0.00 55 1022.9
20190319031503 55 0 0.0 0.0 0.00 0.00 0.00 55 1022.9
20190319031003 55 0 0.0 0.0 0.00 0.00 0.00 54 1022.8
20190319030503 56 0 0.0 0.0 0.00 0.00 0.00 53 1022.8
20190319030003 56 0 0.0 0.0 0.00 0.00 0.00 52 1022.8
20190319025502 56 0 0.0 0.0 0.00 0.00 0.00 51 1022.9